sensor_id;sensor_type;location;lat;lon;timestamp;pressure;altitude;pressure_sealevel;temperature;humidity
12536;BME280;6334;48.696;2.114;2024-03-07T00:00:06;100523.89;;;6.40;81.97
12536;BME280;6334;48.696;2.114;2024-03-07T00:02:45;100526.19;;;6.47;82.86
12536;BME280;6334;48.696;2.114;2024-03-07T00:05:16;100527.89;;;6.42;82.42
12536;BME280;6334;48.696;2.114;2024-03-07T00:07:47;100531.94;;;6.43;83.03
12536;BME280;6334;48.696;2.114;2024-03-07T00:10:17;100526.80;;;6.84;82.38
12536;BME280;6334;48.696;2.114;2024-03-07T00:12:48;100527.68;;;6.60;82.36
12536;BME280;6334;48.696;2.114;2024-03-07T00:15:18;100528.68;;;6.83;82.24
12536;BME280;6334;48.696;2.114;2024-03-07T00:17:49;100525.28;;;6.47;83.45
12536;BME280;6334;48.696;2.114;2024-03-07T00:20:19;100522.24;;;6.41;83.19
12536;BME280;6334;48.696;2.114;2024-03-07T00:22:50;100519.71;;;6.51;82.62
12536;BME280;6334;48.696;2.114;2024-03-07T00:25:20;100516.20;;;6.75;82.58
12536;BME280;6334;48.696;2.114;2024-03-07T00:27:50;100514.66;;;6.64;83.38
12536;BME280;6334;48.696;2.114;2024-03-07T00:30:21;100514.04;;;6.60;83.17
12536;BME280;6334;48.696;2.114;2024-03-07T00:32:51;100513.98;;;6.70;82.40
12536;BME280;6334;48.696;2.114;2024-03-07T00:35:22;100511.53;;;6.49;82.05
12536;BME280;6334;48.696;2.114;2024-03-07T00:37:52;100507.87;;;6.48;82.48
12536;BME280;6334;48.696;2.114;2024-03-07T00:40:23;100510.34;;;6.61;82.76
12536;BME280;6334;48.696;2.114;2024-03-07T00:42:53;100512.12;;;6.57;83.17
12536;BME280;6334;48.696;2.114;2024-03-07T00:45:24;100514.05;;;6.82;82.43
12536;BME280;6334;48.696;2.114;2024-03-07T00:47:54;100513.63;;;6.46;83.85
12536;BME280;6334;48.696;2.114;2024-03-07T00:50:25;100514.44;;;6.58;83.49
12536;BME280;6334;48.696;2.114;2024-03-07T00:52:55;100509.80;;;6.66;83.01
12536;BME280;6334;48.696;2.114;2024-03-07T00:55:26;100511.39;;;6.60;82.72
12536;BME280;6334;48.696;2.114;2024-03-07T00:57:56;100504.38;;;6.59;83.07
12536;BME280;6334;48.696;2.114;2024-03-07T01:00:27;100505.74;;;6.51;83.66
12536;BME280;6334;48.696;2.114;2024-03-07T01:02:57;100505.05;;;6.77;83.20
12536;BME280;6334;48.696;2.114;2024-03-07T01:05:28;100505.91;;;6.70;82.92
12536;BME280;6334;48.696;2.114;2024-03-07T01:07:58;100499.29;;;6.42;83.17
12536;BME280;6334;48.696;2.114;2024-03-07T01:10:28;100505.45;;;6.34;82.34
12536;BME280;6334;48.696;2.114;2024-03-07T01:12:59;100495.28;;;6.34;82.11
12536;BME280;6334;48.696;2.114;2024-03-07T01:15:29;100497.92;;;6.21;82.46
12536;BME280;6334;48.696;2.114;2024-03-07T01:18:00;100494.50;;;6.42;81.43
12536;BME280;6334;48.696;2.114;2024-03-07T01:20:30;100493.83;;;6.16;82.85
12536;BME280;6334;48.696;2.114;2024-03-07T01:23:01;100491.63;;;6.45;82.02
12536;BME280;6334;48.696;2.114;2024-03-07T01:25:31;100484.14;;;6.14;82.63
12536;BME280;6334;48.696;2.114;2024-03-07T01:28:02;100487.32;;;6.37;83.25
12536;BME280;6334;48.696;2.114;2024-03-07T01:30:32;100480.72;;;6.52;82.35
12536;BME280;6334;48.696;2.114;2024-03-07T01:33:03;100479.84;;;6.33;83.32
12536;BME280;6334;48.696;2.114;2024-03-07T01:35:33;100478.40;;;6.36;83.91
12536;BME280;6334;48.696;2.114;2024-03-07T01:38:04;100474.19;;;6.05;84.48
12536;BME280;6334;48.696;2.114;2024-03-07T01:40:35;100472.13;;;6.18;83.66
12536;BME280;6334;48.696;2.114;2024-03-07T01:43:06;100463.84;;;6.38;83.72
12536;BME280;6334;48.696;2.114;2024-03-07T01:45:36;100460.28;;;6.08;83.37
12536;BME280;6334;48.696;2.114;2024-03-07T01:48:08;100454.74;;;6.10;83.90
12536;BME280;6334;48.696;2.114;2024-03-07T01:50:37;100450.87;;;5.94;84.41
12536;BME280;6334;48.696;2.114;2024-03-07T01:53:07;100452.50;;;6.14;83.65
12536;BME280;6334;48.696;2.114;2024-03-07T01:55:38;100443.35;;;6.29;83.31
12536;BME280;6334;48.696;2.114;2024-03-07T01:58:08;100443.52;;;6.37;83.05
12536;BME280;6334;48.696;2.114;2024-03-07T02:00:39;100440.17;;;6.25;83.85
12536;BME280;6334;48.696;2.114;2024-03-07T02:03:09;100436.39;;;6.15;84.95
12536;BME280;6334;48.696;2.114;2024-03-07T02:05:40;100439.70;;;6.27;84.71
12536;BME280;6334;48.696;2.114;2024-03-07T02:08:10;100435.30;;;5.71;85.72
12536;BME280;6334;48.696;2.114;2024-03-07T02:10:41;100436.23;;;5.78;87.38
12536;BME280;6334;48.696;2.114;2024-03-07T02:13:11;100434.25;;;5.92;85.86
12536;BME280;6334;48.696;2.114;2024-03-07T02:15:42;100421.39;;;6.11;85.89
12536;BME280;6334;48.696;2.114;2024-03-07T02:18:12;100416.95;;;6.18;84.84
12536;BME280;6334;48.696;2.114;2024-03-07T02:20:45;100419.09;;;5.88;86.25
12536;BME280;6334;48.696;2.114;2024-03-07T02:23:16;100420.51;;;6.00;85.65
12536;BME280;6334;48.696;2.114;2024-03-07T02:25:46;100419.48;;;6.08;84.76
12536;BME280;6334;48.696;2.114;2024-03-07T02:28:16;100411.14;;;6.16;84.33
12536;BME280;6334;48.696;2.114;2024-03-07T02:30:47;100412.35;;;6.06;85.27
12536;BME280;6334;48.696;2.114;2024-03-07T02:33:17;100408.38;;;5.95;85.61
12536;BME280;6334;48.696;2.114;2024-03-07T02:35:48;100409.54;;;5.90;85.60
12536;BME280;6334;48.696;2.114;2024-03-07T02:38:18;100407.45;;;6.13;84.65
12536;BME280;6334;48.696;2.114;2024-03-07T02:40:49;100409.22;;;5.85;85.40
12536;BME280;6334;48.696;2.114;2024-03-07T02:43:19;100401.47;;;6.09;84.74
12536;BME280;6334;48.696;2.114;2024-03-07T02:45:50;100393.84;;;6.15;83.81
12536;BME280;6334;48.696;2.114;2024-03-07T02:48:20;100392.28;;;6.22;84.34
12536;BME280;6334;48.696;2.114;2024-03-07T02:50:51;100392.18;;;6.28;84.46
12536;BME280;6334;48.696;2.114;2024-03-07T02:53:21;100387.77;;;6.32;83.68
12536;BME280;6334;48.696;2.114;2024-03-07T02:55:52;100386.89;;;6.42;83.18
12536;BME280;6334;48.696;2.114;2024-03-07T02:58:22;100384.83;;;6.13;83.98
12536;BME280;6334;48.696;2.114;2024-03-07T03:00:57;100382.34;;;6.33;83.45
12536;BME280;6334;48.696;2.114;2024-03-07T03:03:31;100382.70;;;6.15;83.50
12536;BME280;6334;48.696;2.114;2024-03-07T03:05:59;100381.20;;;6.16;83.52
12536;BME280;6334;48.696;2.114;2024-03-07T03:08:29;100383.16;;;6.34;82.99
12536;BME280;6334;48.696;2.114;2024-03-07T03:11:00;100375.33;;;6.35;83.45
12536;BME280;6334;48.696;2.114;2024-03-07T03:13:30;100370.05;;;6.20;83.16
12536;BME280;6334;48.696;2.114;2024-03-07T03:16:00;100370.88;;;6.28;83.08
12536;BME280;6334;48.696;2.114;2024-03-07T03:18:31;100369.55;;;6.13;83.25
12536;BME280;6334;48.696;2.114;2024-03-07T03:21:02;100367.66;;;6.16;83.17
12536;BME280;6334;48.696;2.114;2024-03-07T03:23:32;100365.23;;;6.11;82.91
12536;BME280;6334;48.696;2.114;2024-03-07T03:26:03;100361.91;;;6.23;82.81
12536;BME280;6334;48.696;2.114;2024-03-07T03:28:33;100360.04;;;6.28;82.39
12536;BME280;6334;48.696;2.114;2024-03-07T03:31:04;100358.30;;;5.78;84.45
12536;BME280;6334;48.696;2.114;2024-03-07T03:33:34;100357.31;;;5.94;82.81
12536;BME280;6334;48.696;2.114;2024-03-07T03:36:05;100354.72;;;5.63;82.03
12536;BME280;6334;48.696;2.114;2024-03-07T03:38:35;100354.24;;;5.92;81.37
12536;BME280;6334;48.696;2.114;2024-03-07T03:41:06;100351.94;;;5.86;80.37
12536;BME280;6334;48.696;2.114;2024-03-07T03:43:36;100355.39;;;5.53;80.70
12536;BME280;6334;48.696;2.114;2024-03-07T03:46:09;100357.34;;;5.51;79.84
12536;BME280;6334;48.696;2.114;2024-03-07T03:48:40;100347.58;;;5.68;79.23
12536;BME280;6334;48.696;2.114;2024-03-07T03:51:10;100347.57;;;5.55;80.95
12536;BME280;6334;48.696;2.114;2024-03-07T03:53:40;100342.89;;;5.83;81.69
12536;BME280;6334;48.696;2.114;2024-03-07T03:56:10;100349.22;;;5.54;82.67
12536;BME280;6334;48.696;2.114;2024-03-07T03:58:41;100343.52;;;5.30;82.13
12536;BME280;6334;48.696;2.114;2024-03-07T04:01:11;100345.14;;;5.59;80.84
12536;BME280;6334;48.696;2.114;2024-03-07T04:03:41;100340.19;;;5.59;81.42
12536;BME280;6334;48.696;2.114;2024-03-07T04:06:15;100341.95;;;5.55;82.46
12536;BME280;6334;48.696;2.114;2024-03-07T04:08:44;100338.73;;;5.65;82.92
12536;BME280;6334;48.696;2.114;2024-03-07T04:11:15;100338.02;;;5.43;83.78
12536;BME280;6334;48.696;2.114;2024-03-07T04:13:45;100344.21;;;5.57;83.25
12536;BME280;6334;48.696;2.114;2024-03-07T04:16:16;100335.37;;;5.62;79.97
12536;BME280;6334;48.696;2.114;2024-03-07T04:18:46;100332.88;;;5.41;82.38
12536;BME280;6334;48.696;2.114;2024-03-07T04:21:16;100329.72;;;5.53;82.24
12536;BME280;6334;48.696;2.114;2024-03-07T04:23:47;100333.26;;;5.59;83.30
12536;BME280;6334;48.696;2.114;2024-03-07T04:26:17;100314.10;;;5.77;84.13
12536;BME280;6334;48.696;2.114;2024-03-07T04:28:48;100320.80;;;5.80;83.38
12536;BME280;6334;48.696;2.114;2024-03-07T04:31:18;100318.41;;;5.72;83.55
12536;BME280;6334;48.696;2.114;2024-03-07T04:33:49;100314.00;;;5.75;83.52
12536;BME280;6334;48.696;2.114;2024-03-07T04:36:19;100313.45;;;5.71;83.95
12536;BME280;6334;48.696;2.114;2024-03-07T04:38:50;100315.91;;;5.78;84.08
12536;BME280;6334;48.696;2.114;2024-03-07T04:41:21;100319.55;;;5.63;83.66
12536;BME280;6334;48.696;2.114;2024-03-07T04:43:51;100317.72;;;5.61;82.92
12536;BME280;6334;48.696;2.114;2024-03-07T04:46:21;100318.20;;;5.62;83.73
12536;BME280;6334;48.696;2.114;2024-03-07T04:48:53;100314.56;;;5.88;82.92
12536;BME280;6334;48.696;2.114;2024-03-07T04:51:23;100314.34;;;5.89;82.83
12536;BME280;6334;48.696;2.114;2024-03-07T04:53:54;100310.28;;;5.63;83.74
12536;BME280;6334;48.696;2.114;2024-03-07T04:56:24;100319.67;;;5.59;84.25
12536;BME280;6334;48.696;2.114;2024-03-07T04:58:55;100318.95;;;5.74;83.53
12536;BME280;6334;48.696;2.114;2024-03-07T05:01:25;100314.94;;;5.84;82.73
12536;BME280;6334;48.696;2.114;2024-03-07T05:03:56;100319.74;;;5.65;81.05
12536;BME280;6334;48.696;2.114;2024-03-07T05:06:26;100323.58;;;5.62;82.88
12536;BME280;6334;48.696;2.114;2024-03-07T05:08:57;100318.85;;;5.55;83.58
12536;BME280;6334;48.696;2.114;2024-03-07T05:11:30;100327.02;;;5.47;84.04
12536;BME280;6334;48.696;2.114;2024-03-07T05:14:00;100318.66;;;5.66;84.25
12536;BME280;6334;48.696;2.114;2024-03-07T05:16:31;100317.73;;;5.52;84.20
12536;BME280;6334;48.696;2.114;2024-03-07T05:19:01;100309.87;;;5.63;83.85
12536;BME280;6334;48.696;2.114;2024-03-07T05:21:32;100308.91;;;5.64;83.93
12536;BME280;6334;48.696;2.114;2024-03-07T05:24:05;100308.12;;;5.81;83.15
12536;BME280;6334;48.696;2.114;2024-03-07T05:26:35;100305.09;;;5.90;83.34
12536;BME280;6334;48.696;2.114;2024-03-07T05:29:08;100310.97;;;5.85;82.81
12536;BME280;6334;48.696;2.114;2024-03-07T05:31:39;100314.83;;;5.61;80.31
12536;BME280;6334;48.696;2.114;2024-03-07T05:34:12;100318.09;;;5.47;81.18
12536;BME280;6334;48.696;2.114;2024-03-07T05:36:42;100313.38;;;5.58;81.40
12536;BME280;6334;48.696;2.114;2024-03-07T05:39:13;100315.12;;;5.52;82.21
12536;BME280;6334;48.696;2.114;2024-03-07T05:41:43;100321.87;;;5.40;81.66
12536;BME280;6334;48.696;2.114;2024-03-07T05:44:14;100313.72;;;5.52;82.32
12536;BME280;6334;48.696;2.114;2024-03-07T05:46:44;100316.04;;;5.42;82.89
12536;BME280;6334;48.696;2.114;2024-03-07T05:49:15;100317.09;;;5.29;82.76
12536;BME280;6334;48.696;2.114;2024-03-07T05:51:45;100312.91;;;5.35;82.06
12536;BME280;6334;48.696;2.114;2024-03-07T05:54:15;100313.09;;;5.43;83.18
12536;BME280;6334;48.696;2.114;2024-03-07T05:56:46;100305.21;;;5.66;82.31
12536;BME280;6334;48.696;2.114;2024-03-07T05:59:16;100295.97;;;5.53;82.70
12536;BME280;6334;48.696;2.114;2024-03-07T06:01:47;100307.12;;;5.42;82.77
12536;BME280;6334;48.696;2.114;2024-03-07T06:04:17;100299.72;;;5.35;82.80
12536;BME280;6334;48.696;2.114;2024-03-07T06:06:48;100300.77;;;5.47;82.71
12536;BME280;6334;48.696;2.114;2024-03-07T06:09:18;100300.42;;;5.53;82.76
12536;BME280;6334;48.696;2.114;2024-03-07T06:11:49;100297.14;;;5.61;82.54
12536;BME280;6334;48.696;2.114;2024-03-07T06:14:19;100301.50;;;5.33;83.10
12536;BME280;6334;48.696;2.114;2024-03-07T06:16:50;100295.91;;;5.41;83.44
12536;BME280;6334;48.696;2.114;2024-03-07T06:19:20;100297.77;;;5.46;82.46
12536;BME280;6334;48.696;2.114;2024-03-07T06:21:50;100291.30;;;5.62;82.56
12536;BME280;6334;48.696;2.114;2024-03-07T06:24:21;100295.62;;;5.51;82.52
12536;BME280;6334;48.696;2.114;2024-03-07T06:26:51;100294.64;;;5.10;84.35
12536;BME280;6334;48.696;2.114;2024-03-07T06:29:28;100291.44;;;5.33;83.17
12536;BME280;6334;48.696;2.114;2024-03-07T06:31:58;100291.40;;;5.42;82.57
12536;BME280;6334;48.696;2.114;2024-03-07T06:34:28;100296.12;;;5.45;82.83
12536;BME280;6334;48.696;2.114;2024-03-07T06:36:59;100296.38;;;5.71;82.23
12536;BME280;6334;48.696;2.114;2024-03-07T06:39:31;100297.83;;;5.69;82.22
12536;BME280;6334;48.696;2.114;2024-03-07T06:42:01;100292.64;;;5.37;82.82
12536;BME280;6334;48.696;2.114;2024-03-07T06:44:32;100283.69;;;5.34;83.59
12536;BME280;6334;48.696;2.114;2024-03-07T06:47:02;100292.81;;;7.29;100.00
12536;BME280;6334;48.696;2.114;2024-03-07T06:49:33;100294.25;;;6.26;94.53
12536;BME280;6334;48.696;2.114;2024-03-07T06:52:03;100291.72;;;5.90;88.62
12536;BME280;6334;48.696;2.114;2024-03-07T06:54:34;100292.24;;;5.80;85.27
12536;BME280;6334;48.696;2.114;2024-03-07T06:57:04;100291.23;;;5.84;84.00
12536;BME280;6334;48.696;2.114;2024-03-07T06:59:35;100287.63;;;5.59;84.08
12536;BME280;6334;48.696;2.114;2024-03-07T07:02:05;100280.77;;;5.63;83.91
12536;BME280;6334;48.696;2.114;2024-03-07T07:04:36;100291.52;;;5.40;84.97
12536;BME280;6334;48.696;2.114;2024-03-07T07:07:09;100286.11;;;5.70;83.34
12536;BME280;6334;48.696;2.114;2024-03-07T07:09:40;100287.78;;;5.72;83.24
12536;BME280;6334;48.696;2.114;2024-03-07T07:12:10;100287.58;;;5.82;83.18
12536;BME280;6334;48.696;2.114;2024-03-07T07:14:40;100287.41;;;5.76;83.62
12536;BME280;6334;48.696;2.114;2024-03-07T07:17:11;100284.45;;;5.54;84.12
12536;BME280;6334;48.696;2.114;2024-03-07T07:19:41;100281.80;;;5.82;83.76
12536;BME280;6334;48.696;2.114;2024-03-07T07:22:12;100281.33;;;5.78;84.14
12536;BME280;6334;48.696;2.114;2024-03-07T07:24:42;100271.56;;;5.76;83.94
12536;BME280;6334;48.696;2.114;2024-03-07T07:27:13;100276.52;;;5.75;84.06
12536;BME280;6334;48.696;2.114;2024-03-07T07:29:43;100281.83;;;5.97;83.41
12536;BME280;6334;48.696;2.114;2024-03-07T07:32:13;100281.39;;;6.04;83.26
12536;BME280;6334;48.696;2.114;2024-03-07T07:34:44;100271.11;;;5.86;83.18
12536;BME280;6334;48.696;2.114;2024-03-07T07:37:14;100270.63;;;6.10;83.04
12536;BME280;6334;48.696;2.114;2024-03-07T07:39:44;100268.70;;;5.84;83.47
12536;BME280;6334;48.696;2.114;2024-03-07T07:42:14;100267.73;;;5.86;83.59
12536;BME280;6334;48.696;2.114;2024-03-07T07:44:45;100266.09;;;6.09;83.66
12536;BME280;6334;48.696;2.114;2024-03-07T07:47:15;100260.14;;;6.16;82.96
12536;BME280;6334;48.696;2.114;2024-03-07T07:49:46;100257.34;;;6.18;82.34
12536;BME280;6334;48.696;2.114;2024-03-07T07:52:16;100259.83;;;6.01;82.79
12536;BME280;6334;48.696;2.114;2024-03-07T07:54:48;100251.03;;;5.95;82.83
12536;BME280;6334;48.696;2.114;2024-03-07T07:57:18;100245.94;;;6.19;81.88
12536;BME280;6334;48.696;2.114;2024-03-07T07:59:49;100250.66;;;6.27;81.38
12536;BME280;6334;48.696;2.114;2024-03-07T08:02:19;100247.25;;;6.35;81.25
12536;BME280;6334;48.696;2.114;2024-03-07T08:04:50;100241.53;;;6.14;81.67
12536;BME280;6334;48.696;2.114;2024-03-07T08:07:20;100245.20;;;6.19;81.32
12536;BME280;6334;48.696;2.114;2024-03-07T08:09:50;100242.62;;;6.26;81.66
12536;BME280;6334;48.696;2.114;2024-03-07T08:12:21;100243.27;;;5.95;81.88
12536;BME280;6334;48.696;2.114;2024-03-07T08:14:51;100240.19;;;6.13;81.62
12536;BME280;6334;48.696;2.114;2024-03-07T08:17:22;100239.07;;;6.16;81.17
12536;BME280;6334;48.696;2.114;2024-03-07T08:19:52;100233.55;;;6.19;80.66
12536;BME280;6334;48.696;2.114;2024-03-07T08:22:23;100229.34;;;6.40;80.06
12536;BME280;6334;48.696;2.114;2024-03-07T08:24:53;100224.20;;;6.46;80.36
12536;BME280;6334;48.696;2.114;2024-03-07T08:27:24;100220.14;;;6.47;80.11
12536;BME280;6334;48.696;2.114;2024-03-07T08:29:54;100219.77;;;6.29;80.98
12536;BME280;6334;48.696;2.114;2024-03-07T08:32:25;100215.69;;;6.46;80.15
12536;BME280;6334;48.696;2.114;2024-03-07T08:34:55;100216.97;;;6.52;79.59
12536;BME280;6334;48.696;2.114;2024-03-07T08:37:25;100212.94;;;6.65;79.62
12536;BME280;6334;48.696;2.114;2024-03-07T08:39:56;100214.05;;;6.57;79.23
12536;BME280;6334;48.696;2.114;2024-03-07T08:42:26;100209.00;;;6.70;79.46
12536;BME280;6334;48.696;2.114;2024-03-07T08:44:57;100203.09;;;6.52;80.38
12536;BME280;6334;48.696;2.114;2024-03-07T08:47:27;100208.16;;;6.80;78.43
12536;BME280;6334;48.696;2.114;2024-03-07T08:49:58;100206.03;;;6.84;78.28
12536;BME280;6334;48.696;2.114;2024-03-07T08:52:29;100202.52;;;7.08;78.21
12536;BME280;6334;48.696;2.114;2024-03-07T08:54:59;100198.70;;;6.89;78.66
12536;BME280;6334;48.696;2.114;2024-03-07T08:57:30;100202.40;;;6.76;79.01
12536;BME280;6334;48.696;2.114;2024-03-07T09:00:00;100200.66;;;7.00;79.24
12536;BME280;6334;48.696;2.114;2024-03-07T09:02:31;100196.48;;;6.93;78.92
12536;BME280;6334;48.696;2.114;2024-03-07T09:05:04;100203.05;;;6.84;78.89
12536;BME280;6334;48.696;2.114;2024-03-07T09:07:34;100195.73;;;7.06;78.57
12536;BME280;6334;48.696;2.114;2024-03-07T09:10:05;100196.98;;;6.65;80.01
12536;BME280;6334;48.696;2.114;2024-03-07T09:12:35;100194.33;;;7.27;78.78
12536;BME280;6334;48.696;2.114;2024-03-07T09:15:06;100190.05;;;6.95;78.49
12536;BME280;6334;48.696;2.114;2024-03-07T09:17:39;100186.80;;;7.29;78.19
12536;BME280;6334;48.696;2.114;2024-03-07T09:20:10;100182.12;;;7.43;77.60
12536;BME280;6334;48.696;2.114;2024-03-07T09:22:43;100185.28;;;7.39;77.89
12536;BME280;6334;48.696;2.114;2024-03-07T09:25:13;100181.98;;;7.23;78.00
12536;BME280;6334;48.696;2.114;2024-03-07T09:27:44;100176.00;;;7.47;77.36
12536;BME280;6334;48.696;2.114;2024-03-07T09:30:14;100172.41;;;7.66;76.88
12536;BME280;6334;48.696;2.114;2024-03-07T09:32:44;100172.27;;;7.45;78.05
12536;BME280;6334;48.696;2.114;2024-03-07T09:35:15;100172.34;;;7.75;76.72
12536;BME280;6334;48.696;2.114;2024-03-07T09:37:45;100152.50;;;7.48;75.76
12536;BME280;6334;48.696;2.114;2024-03-07T09:40:16;100162.67;;;7.88;75.83
12536;BME280;6334;48.696;2.114;2024-03-07T09:42:47;100163.44;;;7.87;76.76
12536;BME280;6334;48.696;2.114;2024-03-07T09:45:17;100163.92;;;8.05;76.72
12536;BME280;6334;48.696;2.114;2024-03-07T09:47:48;100146.53;;;8.08;75.39
12536;BME280;6334;48.696;2.114;2024-03-07T09:50:18;100163.45;;;8.00;74.56
12536;BME280;6334;48.696;2.114;2024-03-07T09:52:48;100153.48;;;7.84;74.55
12536;BME280;6334;48.696;2.114;2024-03-07T09:55:19;100146.70;;;7.93;73.36
12536;BME280;6334;48.696;2.114;2024-03-07T09:57:49;100141.55;;;8.09;73.44
12536;BME280;6334;48.696;2.114;2024-03-07T10:00:20;100140.56;;;8.12;73.29
12536;BME280;6334;48.696;2.114;2024-03-07T10:03:02;100139.59;;;8.11;72.23
12536;BME280;6334;48.696;2.114;2024-03-07T10:05:29;100137.00;;;8.08;72.83
12536;BME280;6334;48.696;2.114;2024-03-07T10:08:00;100137.16;;;8.20;72.02
12536;BME280;6334;48.696;2.114;2024-03-07T10:10:30;100144.55;;;8.45;71.65
12536;BME280;6334;48.696;2.114;2024-03-07T10:13:00;100139.23;;;8.56;71.95
12536;BME280;6334;48.696;2.114;2024-03-07T10:15:31;100137.38;;;8.61;71.43
12536;BME280;6334;48.696;2.114;2024-03-07T10:18:01;100135.17;;;8.53;72.25
12536;BME280;6334;48.696;2.114;2024-03-07T10:20:32;100133.27;;;8.56;72.00
12536;BME280;6334;48.696;2.114;2024-03-07T10:23:05;100130.69;;;8.83;73.07
12536;BME280;6334;48.696;2.114;2024-03-07T10:25:35;100131.53;;;8.73;71.39
12536;BME280;6334;48.696;2.114;2024-03-07T10:28:06;100123.63;;;8.80;71.74
12536;BME280;6334;48.696;2.114;2024-03-07T10:30:42;100127.66;;;8.75;70.94
12536;BME280;6334;48.696;2.114;2024-03-07T10:33:12;100129.48;;;8.91;71.69
12536;BME280;6334;48.696;2.114;2024-03-07T10:35:45;100129.39;;;9.01;72.83
12536;BME280;6334;48.696;2.114;2024-03-07T10:38:13;100125.96;;;9.02;72.37
12536;BME280;6334;48.696;2.114;2024-03-07T10:40:43;100118.81;;;9.04;71.79
12536;BME280;6334;48.696;2.114;2024-03-07T10:43:14;100122.21;;;9.26;71.86
12536;BME280;6334;48.696;2.114;2024-03-07T10:45:44;100118.57;;;9.03;72.61
12536;BME280;6334;48.696;2.114;2024-03-07T10:48:18;100116.94;;;8.80;72.68
12536;BME280;6334;48.696;2.114;2024-03-07T10:51:21;100106.25;;;9.13;71.92
12536;BME280;6334;48.696;2.114;2024-03-07T10:53:59;100101.30;;;9.24;73.22
12536;BME280;6334;48.696;2.114;2024-03-07T10:56:42;100100.34;;;9.30;72.18
12536;BME280;6334;48.696;2.114;2024-03-07T11:01:53;100094.48;;;9.63;72.94
12536;BME280;6334;48.696;2.114;2024-03-07T11:04:21;100085.95;;;9.63;73.23
12536;BME280;6334;48.696;2.114;2024-03-07T11:06:50;100084.58;;;9.69;72.92
12536;BME280;6334;48.696;2.114;2024-03-07T11:09:21;100080.19;;;9.64;73.48
12536;BME280;6334;48.696;2.114;2024-03-07T11:11:51;100080.78;;;9.67;72.57
12536;BME280;6334;48.696;2.114;2024-03-07T11:14:22;100081.83;;;9.58;73.88
12536;BME280;6334;48.696;2.114;2024-03-07T11:16:52;100077.42;;;9.69;74.05
12536;BME280;6334;48.696;2.114;2024-03-07T11:19:28;100072.20;;;9.78;73.82
12536;BME280;6334;48.696;2.114;2024-03-07T11:21:58;100062.27;;;9.63;74.80
12536;BME280;6334;48.696;2.114;2024-03-07T11:24:31;100063.25;;;9.76;73.96
12536;BME280;6334;48.696;2.114;2024-03-07T11:27:04;100054.27;;;9.75;74.35
12536;BME280;6334;48.696;2.114;2024-03-07T11:32:11;100051.62;;;9.93;74.31
12536;BME280;6334;48.696;2.114;2024-03-07T11:34:41;100047.33;;;10.00;73.27
12536;BME280;6334;48.696;2.114;2024-03-07T11:37:16;100035.41;;;10.03;74.25
12536;BME280;6334;48.696;2.114;2024-03-07T11:39:45;100034.70;;;9.91;73.95
12536;BME280;6334;48.696;2.114;2024-03-07T11:42:27;100034.16;;;10.05;74.25
12536;BME280;6334;48.696;2.114;2024-03-07T11:44:56;100020.20;;;10.11;74.20
12536;BME280;6334;48.696;2.114;2024-03-07T11:47:27;100020.20;;;10.12;73.76
12536;BME280;6334;48.696;2.114;2024-03-07T11:49:57;100015.08;;;10.15;72.62
12536;BME280;6334;48.696;2.114;2024-03-07T11:52:27;100011.23;;;10.04;73.32
12536;BME280;6334;48.696;2.114;2024-03-07T11:54:58;100012.88;;;9.94;72.85
12536;BME280;6334;48.696;2.114;2024-03-07T11:57:31;100001.77;;;9.74;73.82
12536;BME280;6334;48.696;2.114;2024-03-07T12:00:02;99997.44;;;9.67;73.42
12536;BME280;6334;48.696;2.114;2024-03-07T12:02:38;99994.11;;;9.78;73.50
12536;BME280;6334;48.696;2.114;2024-03-07T12:05:08;99983.91;;;10.08;74.73
12536;BME280;6334;48.696;2.114;2024-03-07T12:07:39;99981.22;;;9.87;73.78
12536;BME280;6334;48.696;2.114;2024-03-07T12:10:09;99975.76;;;9.85;74.72
12536;BME280;6334;48.696;2.114;2024-03-07T12:12:39;99973.84;;;9.93;74.10
12536;BME280;6334;48.696;2.114;2024-03-07T12:15:10;99969.36;;;10.01;72.92
12536;BME280;6334;48.696;2.114;2024-03-07T12:17:43;99965.77;;;9.88;72.42
12536;BME280;6334;48.696;2.114;2024-03-07T12:20:14;99965.67;;;10.17;73.08
12536;BME280;6334;48.696;2.114;2024-03-07T12:22:56;99963.08;;;10.12;72.65
12536;BME280;6334;48.696;2.114;2024-03-07T12:25:26;99955.02;;;10.19;72.11
12536;BME280;6334;48.696;2.114;2024-03-07T12:27:59;99952.67;;;10.13;71.94
12536;BME280;6334;48.696;2.114;2024-03-07T12:30:33;99952.47;;;10.25;71.73
12536;BME280;6334;48.696;2.114;2024-03-07T12:33:03;99950.25;;;10.38;72.84
12536;BME280;6334;48.696;2.114;2024-03-07T12:35:33;99943.66;;;10.47;73.03
12536;BME280;6334;48.696;2.114;2024-03-07T12:38:04;99939.00;;;10.33;72.64
12536;BME280;6334;48.696;2.114;2024-03-07T12:40:34;99932.94;;;10.39;72.30
12536;BME280;6334;48.696;2.114;2024-03-07T12:43:16;99930.84;;;10.41;71.72
12536;BME280;6334;48.696;2.114;2024-03-07T12:45:48;99927.62;;;10.32;71.87
12536;BME280;6334;48.696;2.114;2024-03-07T12:48:19;99924.00;;;10.07;71.59
12536;BME280;6334;48.696;2.114;2024-03-07T12:50:49;99921.44;;;10.25;72.04
12536;BME280;6334;48.696;2.114;2024-03-07T12:53:23;99914.81;;;10.39;71.47
12536;BME280;6334;48.696;2.114;2024-03-07T12:55:53;99908.05;;;10.19;72.10
12536;BME280;6334;48.696;2.114;2024-03-07T12:58:23;99905.99;;;10.24;73.14
12536;BME280;6334;48.696;2.114;2024-03-07T13:00:57;99901.80;;;10.44;71.70
12536;BME280;6334;48.696;2.114;2024-03-07T13:03:27;99891.34;;;10.40;72.10
12536;BME280;6334;48.696;2.114;2024-03-07T13:05:58;99894.06;;;10.48;72.31
12536;BME280;6334;48.696;2.114;2024-03-07T13:08:28;99879.33;;;10.72;71.12
12536;BME280;6334;48.696;2.114;2024-03-07T13:10:58;99876.24;;;10.78;71.58
12536;BME280;6334;48.696;2.114;2024-03-07T13:13:29;99881.75;;;10.71;72.08
12536;BME280;6334;48.696;2.114;2024-03-07T13:15:59;99885.52;;;10.47;71.31
12536;BME280;6334;48.696;2.114;2024-03-07T13:18:30;99879.88;;;10.62;71.47
12536;BME280;6334;48.696;2.114;2024-03-07T13:21:00;99867.58;;;10.89;70.24
12536;BME280;6334;48.696;2.114;2024-03-07T13:23:31;99861.81;;;10.69;70.25
12536;BME280;6334;48.696;2.114;2024-03-07T13:26:01;99855.89;;;10.64;69.74
12536;BME280;6334;48.696;2.114;2024-03-07T13:28:32;99857.09;;;10.73;70.67
12536;BME280;6334;48.696;2.114;2024-03-07T13:31:02;99851.60;;;10.67;69.00
12536;BME280;6334;48.696;2.114;2024-03-07T13:33:32;99849.90;;;10.64;69.43